NCAR-RAP Real-Time Weather Data

Output produced by METARs form (23 February 2020  02:36 UTC)
found at http://weather.rap.ucar.edu/surface/
 
KGSO 230154Z 18004KT 10SM CLR 04/M05 A3030 RMK AO2 SLP266 T00441050
KGSO 230054Z 20004KT 10SM CLR 07/M07 A3030 RMK AO2 SLP266 T00721067
KGSO 222354Z 22004KT 10SM CLR 09/M07 A3030 RMK AO2 SLP266 T00891072 10122 20083 55004
KGSO 222254Z 24007KT 10SM CLR 09/M07 A3030 RMK AO2 SLP264 T00941067
KGSO 222154Z 26006KT 10SM CLR 12/M08 A3030 RMK AO2 SLP266 T01171078
KGSO 222054Z 24008KT 10SM FEW250 12/M08 A3031 RMK AO2 SLP268 T01171078 56020
KGSO 221954Z 21008KT 10SM FEW250 11/M08 A3032 RMK AO2 SLP273 T01061078
KGSO 221854Z 22004KT 10SM FEW250 11/M08 A3034 RMK AO2 SLP278 T01061078
KGSO 221754Z VRB03KT 10SM FEW250 09/M09 A3037 RMK AO2 SLP290 T00941089 10100 21056 58022
KGSO 221654Z 29003KT 10SM FEW250 08/M11 A3041 RMK AO2 SLP304 T00831106
KGSO 221554Z 29005KT 10SM FEW250 07/M09 A3043 RMK AO2 SLP312 T00671089
KGSO 221454Z 27008KT 10SM FEW250 04/M06 A3044 RMK AO2 SLP313 T00441061 51009
KGSO 221354Z 00000KT 10SM FEW250 01/M05 A3043 RMK AO2 SLP313 T00061050
KGSO 221254Z 00000KT 10SM FEW250 M03/M06 A3042 RMK AO2 SLP310 T10331056
KGSO 221154Z 00000KT 10SM CLR M05/M07 A3041 RMK AO2 SLP305 T10501072 11028 21056 51011
KGSO 221054Z 22003KT 10SM CLR M04/M06 A3040 RMK AO2 SLP304 T10441061
KGSO 220954Z 21004KT 10SM CLR M05/M07 A3038 RMK AO2 SLP296 T10501067
KGSO 220854Z 00000KT 10SM CLR M04/M07 A3038 RMK AO2 SLP293 T10391067 56013
KGSO 220754Z 00000KT 10SM CLR M03/M07 A3038 RMK AO2 SLP296 T10331067
KGSO 220654Z 22004KT 10SM CLR M04/M06 A3040 RMK AO2 SLP303 T10391061
KGSO 220554Z 21003KT 10SM CLR M03/M06 A3042 RMK AO2 SLP308 T10331061 10028 21039 58011
KGSO 220454Z 00000KT 10SM CLR M02/M06 A3043 RMK AO2 SLP314 T10221061 400501028
KGSO 220354Z 23003KT 10SM CLR M02/M06 A3045 RMK AO2 SLP321 T10221061
KGSO 220254Z 00000KT 10SM CLR M01/M07 A3045 RMK AO2 SLP319 T10111067 51003
KGSO 220154Z 00000KT 10SM CLR 00/M07 A3044 RMK AO2 SLP317 T00001067
KGSO 220054Z 00000KT 10SM CLR 01/M08 A3045 RMK AO2 SLP318 T00111083
KGSO 212354Z 00000KT 10SM CLR 02/M09 A3044 RMK AO2 SLP316 T00221094 10050 20011 53004
KGSO 212254Z 03004KT 10SM CLR 04/M12 A3042 RMK AO2 SLP308 T00391117
KGSO 212154Z 35005KT 10SM CLR 05/M11 A3042 RMK AO2 SLP306 T00501106
KGSO 212054Z 36007KT 10SM CLR 04/M08 A3043 RMK AO2 SLP310 T00441083 56018
KGSO 211954Z 35005KT 10SM FEW040 04/M07 A3044 RMK AO2 SLP315 T00391067
KGSO 211854Z 02009KT 10SM FEW035 03/M07 A3046 RMK AO2 SLP320 T00281067
KGSO 211754Z 03009KT 10SM FEW027 01/M06 A3048 RMK AO2 SLP329 T00111061 10011 21022 50002
KGSO 211654Z VRB05KT 10SM SCT025 00/M06 A3050 RMK AO2 SLP336 T00001056
KGSO 211554Z 03010G17KT 10SM SCT023 M01/M06 A3049 RMK AO2 SLP334 T10111061
KGSO 211543Z 04009KT 10SM SCT023 M01/M06 A3049 RMK AO2 T10111056
KGSO 211454Z 04006KT 10SM BKN022 M02/M05 A3048 RMK AO2 SLP329 T10171050 51024
KGSO 211432Z 04008KT 10SM BKN021 M02/M06 A3048 RMK AO2 T10221056
KGSO 211354Z 05010KT 10SM SCT018 M02/M06 A3047 RMK AO2 SLP325 T10221056
KGSO 211254Z 04007KT 10SM FEW021 SCT030 BKN041 M02/M05 A3043 RMK AO2 SLP313 T10221050 $
KGSO 211154Z 03008KT 10SM FEW033 BKN045 M02/M05 A3040 RMK AO2 SLP304 4/001 70026 T10221050 11011 21022 53023 $
KGSO 211054Z 02007KT 10SM OVC049 M02/M04 A3038 RMK AO2 SLP294 T10171044 $
KGSO 210954Z 03007KT 10SM OVC050 M01/M03 A3035 RMK AO2 SLP286 T10111033 $
KGSO 210854Z 03008KT 10SM OVC055 M01/M03 A3033 RMK AO2 SLP280 T10111033 51004 $
KGSO 210754Z 01004KT 8SM FEW007 BKN049 M02/M02 A3033 RMK AO2 SLP279 T10171022
KGSO 210654Z 01005KT 10SM SCT007 BKN049 M01/M02 A3033 RMK AO2 SLP276 T10111022
KGSO 210645Z 36006KT 9SM SCT007 BKN048 M01/M02 A3033 RMK AO2 T10111022
KGSO 210554Z 01004KT 9SM BKN007 M01/M01 A3032 RMK AO2 CIG 005V009 SLP274 4/002 60003 I6000 T10061011 10000 21006 51001
KGSO 210454Z 03005KT 9SM BKN007 BKN110 BKN250 M01/M01 A3032 RMK AO2 SLP273 BKN007 V SCT T10061011 400501006
KGSO 210426Z 03007KT 10SM SCT007 BKN100 BKN250 M01/M01 A3032 RMK AO2 SCT V BKN T10061011
KGSO 210354Z 04006KT 10SM OVC008 00/M01 A3032 RMK AO2 CIG 005V009 SLP275 T00001011
KGSO 210254Z COR 05008KT 10SM OVC008 00/M01 A3032 RMK AO2 SNE40 CIG 006V013 SLP273 P0000 60003 T00001011 53002